Terminal Aerodrome Forecast
Issued by NWS Paducah, KY

Home | Current Version | Previous Version | Text Only | Print | Product List | Glossary On
Versions: 1 2 3 4 5 6 7 8 9 10 11 12 13 14 15
000
FTUS43 KPAH 231120
TAFPAH
TAF
KPAH 231120Z 2312/2412 21003KT P6SM BKN150
     FM232200 25005KT P6SM VCSH BKN080
     FM240200 30005KT 6SM -SHRA OVC070
     FM240800 32006KT 5SM -SHRA BR OVC020=

USA.gov is the U.S. government's official web portal to all federal, state and local government web resources and services.